sensor_id;sensor_type;location;lat;lon;timestamp;P1;durP1;ratioP1;P2;durP2;ratioP2
17214;SDS011;8723;51.502;6.918;2023-07-20T00:02:11;6.68;;;3.90;;
17214;SDS011;8723;51.502;6.918;2023-07-20T00:04:38;5.72;;;3.97;;
17214;SDS011;8723;51.502;6.918;2023-07-20T00:07:05;5.57;;;3.70;;
17214;SDS011;8723;51.502;6.918;2023-07-20T00:09:32;5.13;;;3.85;;
17214;SDS011;8723;51.502;6.918;2023-07-20T00:11:58;4.90;;;3.72;;
17214;SDS011;8723;51.502;6.918;2023-07-20T00:14:27;5.95;;;4.10;;
17214;SDS011;8723;51.502;6.918;2023-07-20T00:16:54;6.15;;;4.10;;
17214;SDS011;8723;51.502;6.918;2023-07-20T00:19:22;6.50;;;4.00;;
17214;SDS011;8723;51.502;6.918;2023-07-20T00:21:49;5.45;;;3.67;;
17214;SDS011;8723;51.502;6.918;2023-07-20T00:24:16;5.72;;;3.90;;
17214;SDS011;8723;51.502;6.918;2023-07-20T00:26:43;7.22;;;4.20;;
17214;SDS011;8723;51.502;6.918;2023-07-20T00:29:10;5.25;;;4.05;;
17214;SDS011;8723;51.502;6.918;2023-07-20T00:31:38;6.80;;;4.13;;
17214;SDS011;8723;51.502;6.918;2023-07-20T00:34:05;5.30;;;3.80;;
17214;SDS011;8723;51.502;6.918;2023-07-20T00:36:31;4.68;;;3.63;;
17214;SDS011;8723;51.502;6.918;2023-07-20T00:38:58;5.45;;;4.05;;
17214;SDS011;8723;51.502;6.918;2023-07-20T00:41:25;8.45;;;4.50;;
17214;SDS011;8723;51.502;6.918;2023-07-20T00:43:54;4.93;;;3.90;;
17214;SDS011;8723;51.502;6.918;2023-07-20T00:46:21;6.30;;;4.60;;
17214;SDS011;8723;51.502;6.918;2023-07-20T00:48:51;7.55;;;4.60;;
17214;SDS011;8723;51.502;6.918;2023-07-20T00:51:18;7.40;;;4.45;;
17214;SDS011;8723;51.502;6.918;2023-07-20T00:53:46;6.00;;;4.30;;
17214;SDS011;8723;51.502;6.918;2023-07-20T00:56:13;5.93;;;4.47;;
17214;SDS011;8723;51.502;6.918;2023-07-20T00:58:40;6.55;;;4.63;;
17214;SDS011;8723;51.502;6.918;2023-07-20T01:01:07;7.95;;;4.10;;
17214;SDS011;8723;51.502;6.918;2023-07-20T01:03:34;6.20;;;3.90;;
17214;SDS011;8723;51.502;6.918;2023-07-20T01:06:04;5.35;;;4.00;;
17214;SDS011;8723;51.502;6.918;2023-07-20T01:08:39;5.60;;;4.27;;
17214;SDS011;8723;51.502;6.918;2023-07-20T01:11:13;7.47;;;4.43;;
17214;SDS011;8723;51.502;6.918;2023-07-20T01:13:48;5.50;;;4.10;;
17214;SDS011;8723;51.502;6.918;2023-07-20T01:16:16;6.97;;;4.00;;
17214;SDS011;8723;51.502;6.918;2023-07-20T01:18:43;5.50;;;4.10;;
17214;SDS011;8723;51.502;6.918;2023-07-20T01:21:12;5.15;;;4.25;;
17214;SDS011;8723;51.502;6.918;2023-07-20T01:23:56;5.50;;;3.90;;
17214;SDS011;8723;51.502;6.918;2023-07-20T01:26:53;6.93;;;4.57;;
17214;SDS011;8723;51.502;6.918;2023-07-20T01:29:36;4.97;;;4.22;;
17214;SDS011;8723;51.502;6.918;2023-07-20T01:32:16;5.57;;;3.75;;
17214;SDS011;8723;51.502;6.918;2023-07-20T01:34:45;4.65;;;4.03;;
17214;SDS011;8723;51.502;6.918;2023-07-20T01:37:13;5.15;;;4.05;;
17214;SDS011;8723;51.502;6.918;2023-07-20T01:39:42;5.70;;;4.03;;
17214;SDS011;8723;51.502;6.918;2023-07-20T01:42:09;5.60;;;4.28;;
17214;SDS011;8723;51.502;6.918;2023-07-20T01:44:38;5.55;;;4.22;;
17214;SDS011;8723;51.502;6.918;2023-07-20T01:47:06;5.72;;;4.32;;
17214;SDS011;8723;51.502;6.918;2023-07-20T01:49:37;6.32;;;4.68;;
17214;SDS011;8723;51.502;6.918;2023-07-20T01:52:07;6.85;;;5.20;;
17214;SDS011;8723;51.502;6.918;2023-07-20T01:54:36;5.53;;;4.65;;
17214;SDS011;8723;51.502;6.918;2023-07-20T01:57:07;5.25;;;4.35;;
17214;SDS011;8723;51.502;6.918;2023-07-20T01:59:36;7.97;;;5.00;;
17214;SDS011;8723;51.502;6.918;2023-07-20T02:02:06;6.38;;;4.43;;
17214;SDS011;8723;51.502;6.918;2023-07-20T02:04:38;18.13;;;7.00;;
17214;SDS011;8723;51.502;6.918;2023-07-20T02:07:07;38.20;;;11.15;;
17214;SDS011;8723;51.502;6.918;2023-07-20T02:09:35;66.03;;;12.52;;
17214;SDS011;8723;51.502;6.918;2023-07-20T02:12:02;0.40;;;0.40;;
17214;SDS011;8723;51.502;6.918;2023-07-20T02:14:30;0.45;;;0.45;;
17214;SDS011;8723;51.502;6.918;2023-07-20T02:17:00;1.27;;;0.88;;
17214;SDS011;8723;51.502;6.918;2023-07-20T02:19:30;0.68;;;0.68;;
17214;SDS011;8723;51.502;6.918;2023-07-20T02:22:01;2.15;;;0.95;;
17214;SDS011;8723;51.502;6.918;2023-07-20T02:24:30;0.93;;;0.93;;
17214;SDS011;8723;51.502;6.918;2023-07-20T02:26:57;0.70;;;0.70;;
17214;SDS011;8723;51.502;6.918;2023-07-20T02:29:25;1.08;;;0.98;;
17214;SDS011;8723;51.502;6.918;2023-07-20T02:31:54;0.50;;;0.50;;
17214;SDS011;8723;51.502;6.918;2023-07-20T02:34:24;0.45;;;0.45;;
17214;SDS011;8723;51.502;6.918;2023-07-20T02:36:51;0.67;;;0.67;;
17214;SDS011;8723;51.502;6.918;2023-07-20T02:39:19;0.52;;;0.52;;
17214;SDS011;8723;51.502;6.918;2023-07-20T02:41:46;2.92;;;0.93;;
17214;SDS011;8723;51.502;6.918;2023-07-20T02:44:13;0.68;;;0.68;;
17214;SDS011;8723;51.502;6.918;2023-07-20T02:46:40;0.50;;;0.50;;
17214;SDS011;8723;51.502;6.918;2023-07-20T02:49:07;1.50;;;1.20;;
17214;SDS011;8723;51.502;6.918;2023-07-20T02:51:34;1.33;;;1.27;;
17214;SDS011;8723;51.502;6.918;2023-07-20T02:54:01;1.83;;;1.27;;
17214;SDS011;8723;51.502;6.918;2023-07-20T02:56:29;1.08;;;1.08;;
17214;SDS011;8723;51.502;6.918;2023-07-20T02:58:56;4.90;;;1.70;;
17214;SDS011;8723;51.502;6.918;2023-07-20T03:01:23;0.75;;;0.75;;
17214;SDS011;8723;51.502;6.918;2023-07-20T03:03:55;1.00;;;1.00;;
17214;SDS011;8723;51.502;6.918;2023-07-20T03:06:24;1.77;;;1.53;;
17214;SDS011;8723;51.502;6.918;2023-07-20T03:08:54;1.00;;;0.90;;
17214;SDS011;8723;51.502;6.918;2023-07-20T03:11:24;0.73;;;0.73;;
17214;SDS011;8723;51.502;6.918;2023-07-20T03:13:54;0.98;;;0.98;;
17214;SDS011;8723;51.502;6.918;2023-07-20T03:16:21;1.00;;;1.00;;
17214;SDS011;8723;51.502;6.918;2023-07-20T03:18:50;1.00;;;1.00;;
17214;SDS011;8723;51.502;6.918;2023-07-20T03:21:17;1.85;;;1.75;;
17214;SDS011;8723;51.502;6.918;2023-07-20T03:23:43;2.60;;;1.63;;
17214;SDS011;8723;51.502;6.918;2023-07-20T03:26:11;1.43;;;1.43;;
17214;SDS011;8723;51.502;6.918;2023-07-20T03:28:38;1.02;;;1.02;;
17214;SDS011;8723;51.502;6.918;2023-07-20T03:31:06;1.42;;;1.38;;
17214;SDS011;8723;51.502;6.918;2023-07-20T03:33:33;0.60;;;0.60;;
17214;SDS011;8723;51.502;6.918;2023-07-20T03:36:00;0.60;;;0.60;;
17214;SDS011;8723;51.502;6.918;2023-07-20T03:38:27;2.05;;;1.02;;
17214;SDS011;8723;51.502;6.918;2023-07-20T03:40:54;0.90;;;0.90;;
17214;SDS011;8723;51.502;6.918;2023-07-20T03:43:22;0.68;;;0.68;;
17214;SDS011;8723;51.502;6.918;2023-07-20T03:45:49;0.57;;;0.57;;
17214;SDS011;8723;51.502;6.918;2023-07-20T03:48:18;0.90;;;0.90;;
17214;SDS011;8723;51.502;6.918;2023-07-20T03:50:46;1.27;;;1.17;;
17214;SDS011;8723;51.502;6.918;2023-07-20T03:53:15;0.70;;;0.70;;
17214;SDS011;8723;51.502;6.918;2023-07-20T03:55:44;1.02;;;1.02;;
17214;SDS011;8723;51.502;6.918;2023-07-20T03:58:11;1.55;;;1.45;;
17214;SDS011;8723;51.502;6.918;2023-07-20T04:00:38;1.25;;;1.17;;
17214;SDS011;8723;51.502;6.918;2023-07-20T04:03:05;0.93;;;0.93;;
17214;SDS011;8723;51.502;6.918;2023-07-20T04:05:33;1.48;;;1.38;;
17214;SDS011;8723;51.502;6.918;2023-07-20T04:07:59;1.30;;;1.20;;
17214;SDS011;8723;51.502;6.918;2023-07-20T04:10:26;1.40;;;1.15;;
17214;SDS011;8723;51.502;6.918;2023-07-20T04:12:53;0.88;;;0.88;;
17214;SDS011;8723;51.502;6.918;2023-07-20T04:15:20;1.58;;;1.15;;
17214;SDS011;8723;51.502;6.918;2023-07-20T04:17:46;0.88;;;0.88;;
17214;SDS011;8723;51.502;6.918;2023-07-20T04:20:15;0.75;;;0.75;;
17214;SDS011;8723;51.502;6.918;2023-07-20T04:22:44;1.58;;;1.27;;
17214;SDS011;8723;51.502;6.918;2023-07-20T04:25:11;2.30;;;1.10;;
17214;SDS011;8723;51.502;6.918;2023-07-20T04:27:37;1.55;;;1.45;;
17214;SDS011;8723;51.502;6.918;2023-07-20T04:30:06;1.13;;;1.13;;
17214;SDS011;8723;51.502;6.918;2023-07-20T04:32:33;0.88;;;0.88;;
17214;SDS011;8723;51.502;6.918;2023-07-20T04:35:00;1.00;;;0.85;;
17214;SDS011;8723;51.502;6.918;2023-07-20T04:37:28;1.17;;;1.17;;
17214;SDS011;8723;51.502;6.918;2023-07-20T04:39:56;0.70;;;0.70;;
17214;SDS011;8723;51.502;6.918;2023-07-20T04:42:22;1.70;;;1.30;;
17214;SDS011;8723;51.502;6.918;2023-07-20T04:44:49;0.95;;;0.95;;
17214;SDS011;8723;51.502;6.918;2023-07-20T04:47:16;1.00;;;1.00;;
17214;SDS011;8723;51.502;6.918;2023-07-20T04:49:43;1.73;;;1.27;;
17214;SDS011;8723;51.502;6.918;2023-07-20T04:52:10;1.25;;;1.15;;
17214;SDS011;8723;51.502;6.918;2023-07-20T04:54:36;1.35;;;0.90;;
17214;SDS011;8723;51.502;6.918;2023-07-20T04:57:05;0.90;;;0.90;;
17214;SDS011;8723;51.502;6.918;2023-07-20T04:59:35;0.90;;;0.90;;
17214;SDS011;8723;51.502;6.918;2023-07-20T05:02:02;1.08;;;1.08;;
17214;SDS011;8723;51.502;6.918;2023-07-20T05:04:29;0.88;;;0.88;;
17214;SDS011;8723;51.502;6.918;2023-07-20T05:06:56;1.90;;;1.00;;
17214;SDS011;8723;51.502;6.918;2023-07-20T05:09:23;1.10;;;1.10;;
17214;SDS011;8723;51.502;6.918;2023-07-20T05:11:50;0.55;;;0.55;;
17214;SDS011;8723;51.502;6.918;2023-07-20T05:14:18;0.98;;;0.98;;
17214;SDS011;8723;51.502;6.918;2023-07-20T05:16:44;1.08;;;1.08;;
17214;SDS011;8723;51.502;6.918;2023-07-20T05:19:11;0.65;;;0.65;;
17214;SDS011;8723;51.502;6.918;2023-07-20T05:21:38;0.68;;;0.68;;
17214;SDS011;8723;51.502;6.918;2023-07-20T05:24:05;0.53;;;0.47;;
17214;SDS011;8723;51.502;6.918;2023-07-20T05:26:33;0.85;;;0.85;;
17214;SDS011;8723;51.502;6.918;2023-07-20T05:28:59;1.92;;;1.15;;
17214;SDS011;8723;51.502;6.918;2023-07-20T05:31:27;1.52;;;1.42;;
17214;SDS011;8723;51.502;6.918;2023-07-20T05:33:55;0.90;;;0.90;;
17214;SDS011;8723;51.502;6.918;2023-07-20T05:36:25;0.55;;;0.55;;
17214;SDS011;8723;51.502;6.918;2023-07-20T05:38:52;0.65;;;0.65;;
17214;SDS011;8723;51.502;6.918;2023-07-20T05:41:19;0.55;;;0.55;;
17214;SDS011;8723;51.502;6.918;2023-07-20T05:43:45;0.20;;;0.20;;
17214;SDS011;8723;51.502;6.918;2023-07-20T05:46:12;0.75;;;0.75;;
17214;SDS011;8723;51.502;6.918;2023-07-20T05:48:40;0.90;;;0.90;;
17214;SDS011;8723;51.502;6.918;2023-07-20T05:51:07;0.70;;;0.70;;
17214;SDS011;8723;51.502;6.918;2023-07-20T05:53:35;0.63;;;0.63;;
17214;SDS011;8723;51.502;6.918;2023-07-20T05:56:01;0.20;;;0.20;;
17214;SDS011;8723;51.502;6.918;2023-07-20T05:58:29;0.50;;;0.50;;
17214;SDS011;8723;51.502;6.918;2023-07-20T06:00:56;0.20;;;0.20;;
17214;SDS011;8723;51.502;6.918;2023-07-20T06:03:23;0.20;;;0.20;;
17214;SDS011;8723;51.502;6.918;2023-07-20T06:05:51;0.30;;;0.30;;
17214;SDS011;8723;51.502;6.918;2023-07-20T06:08:18;0.20;;;0.20;;
17214;SDS011;8723;51.502;6.918;2023-07-20T06:10:45;0.30;;;0.30;;
17214;SDS011;8723;51.502;6.918;2023-07-20T06:13:16;1.10;;;0.47;;
17214;SDS011;8723;51.502;6.918;2023-07-20T06:15:43;0.70;;;0.70;;
17214;SDS011;8723;51.502;6.918;2023-07-20T06:18:10;0.30;;;0.30;;
17214;SDS011;8723;51.502;6.918;2023-07-20T06:20:37;0.27;;;0.27;;
17214;SDS011;8723;51.502;6.918;2023-07-20T06:23:05;0.57;;;0.57;;
17214;SDS011;8723;51.502;6.918;2023-07-20T06:25:32;0.50;;;0.50;;
17214;SDS011;8723;51.502;6.918;2023-07-20T06:27:58;0.28;;;0.28;;
17214;SDS011;8723;51.502;6.918;2023-07-20T06:30:25;0.38;;;0.38;;
17214;SDS011;8723;51.502;6.918;2023-07-20T06:32:52;0.45;;;0.45;;
17214;SDS011;8723;51.502;6.918;2023-07-20T06:35:19;0.45;;;0.45;;
17214;SDS011;8723;51.502;6.918;2023-07-20T06:37:46;0.50;;;0.43;;
17214;SDS011;8723;51.502;6.918;2023-07-20T06:40:14;0.47;;;0.43;;
17214;SDS011;8723;51.502;6.918;2023-07-20T06:42:41;0.20;;;0.20;;
17214;SDS011;8723;51.502;6.918;2023-07-20T06:45:08;0.13;;;0.13;;
17214;SDS011;8723;51.502;6.918;2023-07-20T06:47:37;0.15;;;0.15;;
17214;SDS011;8723;51.502;6.918;2023-07-20T06:50:04;0.30;;;0.30;;
17214;SDS011;8723;51.502;6.918;2023-07-20T06:52:32;0.40;;;0.40;;
17214;SDS011;8723;51.502;6.918;2023-07-20T06:54:59;0.22;;;0.22;;
17214;SDS011;8723;51.502;6.918;2023-07-20T06:57:27;0.20;;;0.20;;
17214;SDS011;8723;51.502;6.918;2023-07-20T06:59:54;0.20;;;0.15;;
17214;SDS011;8723;51.502;6.918;2023-07-20T07:02:20;0.50;;;0.40;;
17214;SDS011;8723;51.502;6.918;2023-07-20T07:04:47;0.30;;;0.30;;
17214;SDS011;8723;51.502;6.918;2023-07-20T07:07:14;0.17;;;0.17;;
17214;SDS011;8723;51.502;6.918;2023-07-20T07:09:41;0.20;;;0.20;;
17214;SDS011;8723;51.502;6.918;2023-07-20T07:12:08;0.30;;;0.30;;
17214;SDS011;8723;51.502;6.918;2023-07-20T07:14:36;0.23;;;0.23;;
17214;SDS011;8723;51.502;6.918;2023-07-20T07:17:03;0.38;;;0.38;;
17214;SDS011;8723;51.502;6.918;2023-07-20T07:19:31;0.38;;;0.38;;
17214;SDS011;8723;51.502;6.918;2023-07-20T07:21:57;0.22;;;0.22;;
17214;SDS011;8723;51.502;6.918;2023-07-20T07:24:26;0.08;;;0.08;;
17214;SDS011;8723;51.502;6.918;2023-07-20T07:26:58;0.17;;;0.17;;
17214;SDS011;8723;51.502;6.918;2023-07-20T07:29:26;0.30;;;0.30;;
17214;SDS011;8723;51.502;6.918;2023-07-20T07:31:54;0.40;;;0.40;;
17214;SDS011;8723;51.502;6.918;2023-07-20T07:34:21;0.30;;;0.30;;
17214;SDS011;8723;51.502;6.918;2023-07-20T07:36:48;0.65;;;0.25;;
17214;SDS011;8723;51.502;6.918;2023-07-20T07:39:16;0.70;;;0.60;;
17214;SDS011;8723;51.502;6.918;2023-07-20T07:41:43;0.30;;;0.20;;
17214;SDS011;8723;51.502;6.918;2023-07-20T07:44:10;0.10;;;0.10;;
17214;SDS011;8723;51.502;6.918;2023-07-20T07:46:37;0.00;;;0.00;;
17214;SDS011;8723;51.502;6.918;2023-07-20T07:49:06;0.35;;;0.35;;
17214;SDS011;8723;51.502;6.918;2023-07-20T07:51:33;0.30;;;0.20;;
17214;SDS011;8723;51.502;6.918;2023-07-20T07:54:00;0.10;;;0.10;;
17214;SDS011;8723;51.502;6.918;2023-07-20T07:56:26;0.10;;;0.10;;
17214;SDS011;8723;51.502;6.918;2023-07-20T07:58:53;0.20;;;0.20;;
17214;SDS011;8723;51.502;6.918;2023-07-20T08:01:20;0.17;;;0.17;;
17214;SDS011;8723;51.502;6.918;2023-07-20T08:03:47;0.30;;;0.30;;
17214;SDS011;8723;51.502;6.918;2023-07-20T08:06:15;0.10;;;0.10;;
17214;SDS011;8723;51.502;6.918;2023-07-20T08:08:42;0.10;;;0.10;;
17214;SDS011;8723;51.502;6.918;2023-07-20T08:11:09;0.00;;;0.00;;
17214;SDS011;8723;51.502;6.918;2023-07-20T08:13:36;0.20;;;0.20;;
17214;SDS011;8723;51.502;6.918;2023-07-20T08:16:03;0.10;;;0.10;;
17214;SDS011;8723;51.502;6.918;2023-07-20T08:18:30;0.10;;;0.10;;
17214;SDS011;8723;51.502;6.918;2023-07-20T08:20:57;0.50;;;0.40;;
17214;SDS011;8723;51.502;6.918;2023-07-20T08:23:25;0.10;;;0.10;;
17214;SDS011;8723;51.502;6.918;2023-07-20T08:25:52;0.10;;;0.10;;
17214;SDS011;8723;51.502;6.918;2023-07-20T08:28:19;0.10;;;0.10;;
17214;SDS011;8723;51.502;6.918;2023-07-20T08:30:46;0.30;;;0.30;;
17214;SDS011;8723;51.502;6.918;2023-07-20T08:33:14;0.10;;;0.10;;
17214;SDS011;8723;51.502;6.918;2023-07-20T08:35:43;0.10;;;0.10;;
17214;SDS011;8723;51.502;6.918;2023-07-20T08:38:10;0.00;;;0.00;;
17214;SDS011;8723;51.502;6.918;2023-07-20T08:40:43;0.00;;;0.00;;
17214;SDS011;8723;51.502;6.918;2023-07-20T08:43:10;0.00;;;0.00;;
17214;SDS011;8723;51.502;6.918;2023-07-20T08:45:39;0.30;;;0.20;;
17214;SDS011;8723;51.502;6.918;2023-07-20T08:48:06;0.00;;;0.00;;
17214;SDS011;8723;51.502;6.918;2023-07-20T08:50:34;0.00;;;0.00;;
17214;SDS011;8723;51.502;6.918;2023-07-20T08:53:02;0.20;;;0.20;;
17214;SDS011;8723;51.502;6.918;2023-07-20T08:55:29;0.00;;;0.00;;
17214;SDS011;8723;51.502;6.918;2023-07-20T08:57:58;0.10;;;0.10;;
17214;SDS011;8723;51.502;6.918;2023-07-20T09:00:26;0.13;;;0.13;;
17214;SDS011;8723;51.502;6.918;2023-07-20T09:02:54;0.10;;;0.10;;
17214;SDS011;8723;51.502;6.918;2023-07-20T09:05:22;0.00;;;0.00;;
17214;SDS011;8723;51.502;6.918;2023-07-20T09:07:51;0.00;;;0.00;;
17214;SDS011;8723;51.502;6.918;2023-07-20T09:10:19;0.00;;;0.00;;
17214;SDS011;8723;51.502;6.918;2023-07-20T09:12:47;0.10;;;0.10;;
17214;SDS011;8723;51.502;6.918;2023-07-20T09:15:15;0.00;;;0.00;;
17214;SDS011;8723;51.502;6.918;2023-07-20T09:17:45;13.80;;;0.90;;
17214;SDS011;8723;51.502;6.918;2023-07-20T09:20:12;0.00;;;0.00;;
17214;SDS011;8723;51.502;6.918;2023-07-20T09:22:41;0.00;;;0.00;;
17214;SDS011;8723;51.502;6.918;2023-07-20T09:25:10;0.10;;;0.10;;
17214;SDS011;8723;51.502;6.918;2023-07-20T09:27:40;0.00;;;0.00;;
17214;SDS011;8723;51.502;6.918;2023-07-20T09:30:08;0.10;;;0.10;;
17214;SDS011;8723;51.502;6.918;2023-07-20T09:32:39;0.00;;;0.00;;
17214;SDS011;8723;51.502;6.918;2023-07-20T09:35:12;0.05;;;0.05;;
17214;SDS011;8723;51.502;6.918;2023-07-20T09:37:41;0.00;;;0.00;;
17214;SDS011;8723;51.502;6.918;2023-07-20T09:40:14;0.00;;;0.00;;
17214;SDS011;8723;51.502;6.918;2023-07-20T09:42:42;0.00;;;0.00;;
17214;SDS011;8723;51.502;6.918;2023-07-20T09:45:09;0.10;;;0.10;;
17214;SDS011;8723;51.502;6.918;2023-07-20T09:47:36;0.00;;;0.00;;
17214;SDS011;8723;51.502;6.918;2023-07-20T09:50:05;0.10;;;0.10;;
17214;SDS011;8723;51.502;6.918;2023-07-20T09:52:36;0.00;;;0.00;;
17214;SDS011;8723;51.502;6.918;2023-07-20T09:55:05;0.00;;;0.00;;
17214;SDS011;8723;51.502;6.918;2023-07-20T09:57:33;0.00;;;0.00;;
17214;SDS011;8723;51.502;6.918;2023-07-20T10:00:00;0.00;;;0.00;;
17214;SDS011;8723;51.502;6.918;2023-07-20T10:02:30;0.10;;;0.10;;
17214;SDS011;8723;51.502;6.918;2023-07-20T10:05:02;0.10;;;0.10;;
17214;SDS011;8723;51.502;6.918;2023-07-20T10:07:31;0.00;;;0.00;;
17214;SDS011;8723;51.502;6.918;2023-07-20T10:10:02;0.00;;;0.00;;
17214;SDS011;8723;51.502;6.918;2023-07-20T10:12:30;0.00;;;0.00;;
17214;SDS011;8723;51.502;6.918;2023-07-20T10:15:02;0.10;;;0.10;;
17214;SDS011;8723;51.502;6.918;2023-07-20T10:17:37;0.20;;;0.10;;
17214;SDS011;8723;51.502;6.918;2023-07-20T10:20:14;0.00;;;0.00;;
17214;SDS011;8723;51.502;6.918;2023-07-20T10:22:44;0.00;;;0.00;;
17214;SDS011;8723;51.502;6.918;2023-07-20T10:25:11;0.00;;;0.00;;
17214;SDS011;8723;51.502;6.918;2023-07-20T10:27:39;0.00;;;0.00;;
17214;SDS011;8723;51.502;6.918;2023-07-20T10:30:07;0.07;;;0.03;;
17214;SDS011;8723;51.502;6.918;2023-07-20T10:32:34;0.10;;;0.10;;
17214;SDS011;8723;51.502;6.918;2023-07-20T10:35:01;0.00;;;0.00;;
17214;SDS011;8723;51.502;6.918;2023-07-20T10:37:50;0.00;;;0.00;;
17214;SDS011;8723;51.502;6.918;2023-07-20T10:40:27;0.10;;;0.10;;
17214;SDS011;8723;51.502;6.918;2023-07-20T10:42:57;0.00;;;0.00;;
17214;SDS011;8723;51.502;6.918;2023-07-20T10:48:18;0.30;;;0.30;;
17214;SDS011;8723;51.502;6.918;2023-07-20T10:50:46;0.00;;;0.00;;
17214;SDS011;8723;51.502;6.918;2023-07-20T10:53:34;1.00;;;1.00;;
17214;SDS011;8723;51.502;6.918;2023-07-20T10:56:07;1.30;;;1.30;;
17214;SDS011;8723;51.502;6.918;2023-07-20T10:58:35;1.35;;;1.27;;
17214;SDS011;8723;51.502;6.918;2023-07-20T11:01:02;1.33;;;1.23;;
17214;SDS011;8723;51.502;6.918;2023-07-20T11:03:32;1.48;;;1.30;;
17214;SDS011;8723;51.502;6.918;2023-07-20T11:06:01;1.07;;;1.03;;
17214;SDS011;8723;51.502;6.918;2023-07-20T11:09:04;0.90;;;0.90;;
17214;SDS011;8723;51.502;6.918;2023-07-20T11:11:36;2.67;;;1.17;;
17214;SDS011;8723;51.502;6.918;2023-07-20T11:14:04;1.25;;;0.90;;
17214;SDS011;8723;51.502;6.918;2023-07-20T11:16:39;1.30;;;1.00;;
17214;SDS011;8723;51.502;6.918;2023-07-20T11:19:15;1.58;;;1.10;;
17214;SDS011;8723;51.502;6.918;2023-07-20T11:21:43;1.20;;;1.10;;
17214;SDS011;8723;51.502;6.918;2023-07-20T11:24:12;1.25;;;1.10;;
17214;SDS011;8723;51.502;6.918;2023-07-20T11:26:39;1.50;;;1.20;;
17214;SDS011;8723;51.502;6.918;2023-07-20T11:29:10;1.17;;;1.10;;
17214;SDS011;8723;51.502;6.918;2023-07-20T11:31:37;2.80;;;1.20;;
17214;SDS011;8723;51.502;6.918;2023-07-20T11:34:05;1.73;;;1.17;;
17214;SDS011;8723;51.502;6.918;2023-07-20T11:36:33;1.52;;;1.42;;
17214;SDS011;8723;51.502;6.918;2023-07-20T11:39:00;1.25;;;1.15;;
17214;SDS011;8723;51.502;6.918;2023-07-20T11:41:31;1.35;;;1.35;;
17214;SDS011;8723;51.502;6.918;2023-07-20T11:43:58;1.40;;;1.00;;
17214;SDS011;8723;51.502;6.918;2023-07-20T11:46:25;1.27;;;1.17;;
17214;SDS011;8723;51.502;6.918;2023-07-20T11:48:57;1.08;;;0.98;;
17214;SDS011;8723;51.502;6.918;2023-07-20T11:51:25;1.43;;;0.70;;
17214;SDS011;8723;51.502;6.918;2023-07-20T11:53:53;0.75;;;0.75;;
17214;SDS011;8723;51.502;6.918;2023-07-20T11:56:21;0.80;;;0.70;;
17214;SDS011;8723;51.502;6.918;2023-07-20T11:58:50;1.48;;;0.82;;
17214;SDS011;8723;51.502;6.918;2023-07-20T12:01:21;0.90;;;0.80;;
17214;SDS011;8723;51.502;6.918;2023-07-20T12:03:49;0.80;;;0.77;;
17214;SDS011;8723;51.502;6.918;2023-07-20T12:06:16;0.90;;;0.90;;
17214;SDS011;8723;51.502;6.918;2023-07-20T12:08:43;1.30;;;1.20;;
17214;SDS011;8723;51.502;6.918;2023-07-20T12:11:10;1.30;;;1.20;;
17214;SDS011;8723;51.502;6.918;2023-07-20T12:13:37;1.17;;;1.17;;
17214;SDS011;8723;51.502;6.918;2023-07-20T12:16:13;1.37;;;1.27;;
17214;SDS011;8723;51.502;6.918;2023-07-20T12:18:42;1.27;;;1.20;;
17214;SDS011;8723;51.502;6.918;2023-07-20T12:21:09;1.02;;;0.90;;
17214;SDS011;8723;51.502;6.918;2023-07-20T12:23:37;1.20;;;0.90;;
17214;SDS011;8723;51.502;6.918;2023-07-20T12:26:08;0.90;;;0.90;;
17214;SDS011;8723;51.502;6.918;2023-07-20T12:28:38;1.00;;;0.90;;
17214;SDS011;8723;51.502;6.918;2023-07-20T12:31:07;0.90;;;0.90;;
17214;SDS011;8723;51.502;6.918;2023-07-20T12:33:36;0.90;;;0.90;;
17214;SDS011;8723;51.502;6.918;2023-07-20T12:36:03;0.80;;;0.80;;
17214;SDS011;8723;51.502;6.918;2023-07-20T12:38:31;0.88;;;0.88;;
17214;SDS011;8723;51.502;6.918;2023-07-20T12:41:00;1.00;;;0.80;;
17214;SDS011;8723;51.502;6.918;2023-07-20T12:43:27;0.70;;;0.70;;
17214;SDS011;8723;51.502;6.918;2023-07-20T12:45:55;1.70;;;1.10;;
17214;SDS011;8723;51.502;6.918;2023-07-20T12:48:22;1.25;;;1.00;;
17214;SDS011;8723;51.502;6.918;2023-07-20T12:50:50;1.80;;;0.90;;
17214;SDS011;8723;51.502;6.918;2023-07-20T12:53:17;0.57;;;0.57;;
17214;SDS011;8723;51.502;6.918;2023-07-20T12:55:44;0.80;;;0.80;;
17214;SDS011;8723;51.502;6.918;2023-07-20T12:58:11;0.80;;;0.80;;
17214;SDS011;8723;51.502;6.918;2023-07-20T13:00:39;2.20;;;0.80;;
17214;SDS011;8723;51.502;6.918;2023-07-20T13:03:06;1.30;;;0.82;;
17214;SDS011;8723;51.502;6.918;2023-07-20T13:05:33;0.87;;;0.87;;
17214;SDS011;8723;51.502;6.918;2023-07-20T13:08:01;1.73;;;1.02;;
17214;SDS011;8723;51.502;6.918;2023-07-20T13:10:30;1.40;;;1.00;;
17214;SDS011;8723;51.502;6.918;2023-07-20T13:12:57;2.60;;;1.30;;
17214;SDS011;8723;51.502;6.918;2023-07-20T13:15:24;1.05;;;0.95;;
17214;SDS011;8723;51.502;6.918;2023-07-20T13:17:57;1.33;;;1.10;;
17214;SDS011;8723;51.502;6.918;2023-07-20T13:20:25;0.70;;;0.70;;
17214;SDS011;8723;51.502;6.918;2023-07-20T13:22:53;1.33;;;0.90;;
17214;SDS011;8723;51.502;6.918;2023-07-20T13:25:21;1.07;;;0.87;;
17214;SDS011;8723;51.502;6.918;2023-07-20T13:27:48;1.10;;;0.70;;
17214;SDS011;8723;51.502;6.918;2023-07-20T13:30:14;0.60;;;0.60;;
17214;SDS011;8723;51.502;6.918;2023-07-20T13:32:42;0.70;;;0.70;;
17214;SDS011;8723;51.502;6.918;2023-07-20T13:35:09;0.93;;;0.65;;
17214;SDS011;8723;51.502;6.918;2023-07-20T13:37:36;0.77;;;0.77;;
17214;SDS011;8723;51.502;6.918;2023-07-20T13:40:04;0.88;;;0.80;;
17214;SDS011;8723;51.502;6.918;2023-07-20T13:42:33;1.00;;;0.90;;
17214;SDS011;8723;51.502;6.918;2023-07-20T13:45:00;3.70;;;0.70;;
17214;SDS011;8723;51.502;6.918;2023-07-20T13:47:27;0.80;;;0.70;;
17214;SDS011;8723;51.502;6.918;2023-07-20T13:49:54;1.23;;;0.85;;
17214;SDS011;8723;51.502;6.918;2023-07-20T13:52:21;1.17;;;1.00;;
17214;SDS011;8723;51.502;6.918;2023-07-20T13:54:48;0.90;;;0.90;;
17214;SDS011;8723;51.502;6.918;2023-07-20T13:57:15;0.70;;;0.70;;
17214;SDS011;8723;51.502;6.918;2023-07-20T13:59:43;1.67;;;1.30;;
17214;SDS011;8723;51.502;6.918;2023-07-20T14:02:10;1.08;;;0.98;;
17214;SDS011;8723;51.502;6.918;2023-07-20T14:04:38;1.08;;;0.98;;
17214;SDS011;8723;51.502;6.918;2023-07-20T14:07:05;2.05;;;1.17;;
17214;SDS011;8723;51.502;6.918;2023-07-20T14:09:32;1.70;;;1.40;;
17214;SDS011;8723;51.502;6.918;2023-07-20T14:11:59;1.10;;;1.00;;
17214;SDS011;8723;51.502;6.918;2023-07-20T14:14:25;1.48;;;1.00;;
17214;SDS011;8723;51.502;6.918;2023-07-20T14:16:54;1.33;;;1.30;;
17214;SDS011;8723;51.502;6.918;2023-07-20T14:19:21;1.80;;;1.30;;
17214;SDS011;8723;51.502;6.918;2023-07-20T14:21:48;2.10;;;1.40;;
17214;SDS011;8723;51.502;6.918;2023-07-20T14:24:15;1.60;;;1.40;;
17214;SDS011;8723;51.502;6.918;2023-07-20T14:26:43;2.03;;;1.42;;
17214;SDS011;8723;51.502;6.918;2023-07-20T14:29:11;2.78;;;1.17;;
17214;SDS011;8723;51.502;6.918;2023-07-20T14:31:38;1.92;;;1.40;;
17214;SDS011;8723;51.502;6.918;2023-07-20T14:34:06;1.73;;;1.20;;
17214;SDS011;8723;51.502;6.918;2023-07-20T14:36:33;1.40;;;1.10;;
17214;SDS011;8723;51.502;6.918;2023-07-20T14:38:59;1.10;;;1.00;;
17214;SDS011;8723;51.502;6.918;2023-07-20T14:41:26;2.15;;;1.27;;
17214;SDS011;8723;51.502;6.918;2023-07-20T14:43:53;1.10;;;1.00;;
17214;SDS011;8723;51.502;6.918;2023-07-20T14:46:20;1.63;;;1.10;;
17214;SDS011;8723;51.502;6.918;2023-07-20T14:48:47;1.00;;;0.90;;
17214;SDS011;8723;51.502;6.918;2023-07-20T14:51:15;1.33;;;1.00;;
17214;SDS011;8723;51.502;6.918;2023-07-20T14:53:42;1.02;;;0.90;;
17214;SDS011;8723;51.502;6.918;2023-07-20T14:56:08;1.30;;;0.90;;
17214;SDS011;8723;51.502;6.918;2023-07-20T14:58:35;2.00;;;1.10;;
17214;SDS011;8723;51.502;6.918;2023-07-20T15:01:02;2.80;;;1.10;;
17214;SDS011;8723;51.502;6.918;2023-07-20T15:03:29;0.88;;;0.88;;
17214;SDS011;8723;51.502;6.918;2023-07-20T15:05:56;1.00;;;0.90;;
17214;SDS011;8723;51.502;6.918;2023-07-20T15:08:25;1.10;;;1.00;;
17214;SDS011;8723;51.502;6.918;2023-07-20T15:10:51;1.60;;;0.95;;